createdAt,value
2023-04-19T05:03:18.716Z,972.00
2023-04-19T05:04:19.779Z,965.00
2023-04-19T05:05:18.746Z,966.00
2023-04-19T05:06:18.743Z,965.00
2023-04-19T05:07:18.787Z,966.00
2023-04-19T05:08:18.853Z,965.00
2023-04-19T05:09:18.849Z,966.00
2023-04-19T05:10:18.889Z,966.00
2023-04-19T05:11:19.901Z,967.00
2023-04-19T05:12:18.918Z,968.00
2023-04-19T05:13:19.952Z,970.00
2023-04-19T05:14:19.022Z,969.00
2023-04-19T05:15:19.063Z,966.00
2023-04-19T05:16:20.209Z,966.00
2023-04-19T05:17:19.198Z,966.00
2023-04-19T05:18:19.225Z,970.00
2023-04-19T05:19:19.331Z,972.00
2023-04-19T05:20:19.308Z,965.00
2023-04-19T05:21:19.369Z,965.00
2023-04-19T05:22:20.429Z,966.00
2023-04-19T05:23:20.442Z,970.00
2023-04-19T05:24:20.497Z,968.00
2023-04-19T05:25:19.520Z,973.00
2023-04-19T05:26:19.585Z,966.00
2023-04-19T05:27:20.644Z,957.00
2023-04-19T05:28:19.700Z,951.00
2023-04-19T05:29:19.725Z,941.00
2023-04-19T05:30:20.777Z,939.00
2023-04-19T05:31:19.879Z,929.00
2023-04-19T05:32:20.888Z,926.00
2023-04-19T05:33:20.929Z,922.00
2023-04-19T05:34:22.172Z,915.00
2023-04-19T05:35:20.028Z,913.00
2023-04-19T05:36:21.100Z,902.00
2023-04-19T05:37:20.116Z,905.00
2023-04-19T05:38:21.136Z,910.00
2023-04-19T05:39:20.189Z,910.00
2023-04-19T05:40:21.233Z,934.00
2023-04-19T05:41:21.430Z,940.00
2023-04-19T05:42:21.405Z,949.00
2023-04-19T05:43:21.387Z,1023.00
2023-04-19T05:44:20.541Z,1037.00
2023-04-19T05:45:21.414Z,1003.00
2023-04-19T05:46:20.477Z,1022.00
2023-04-19T05:47:20.495Z,1077.00
2023-04-19T05:48:21.474Z,1077.00
2023-04-19T05:49:21.515Z,1018.00
2023-04-19T05:50:21.594Z,1011.00
2023-04-19T05:51:20.528Z,1007.00
2023-04-19T05:52:21.646Z,1017.00
2023-04-19T05:53:21.599Z,1026.00
2023-04-19T05:54:21.655Z,1029.00
2023-04-19T05:55:20.592Z,1041.00
2023-04-19T05:56:21.651Z,1110.00
2023-04-19T05:57:21.635Z,1109.00
2023-04-19T05:58:21.675Z,1123.00
2023-04-19T05:59:21.690Z,1123.00
2023-04-19T06:00:20.734Z,1039.00
2023-04-19T06:01:21.769Z,1083.00
2023-04-19T06:02:21.297Z,1100.00
2023-04-19T06:03:21.037Z,1151.00
2023-04-19T06:04:21.612Z,1149.00
2023-04-19T06:05:22.072Z,1141.00
2023-04-19T06:06:22.128Z,1139.00
2023-04-19T06:07:30.935Z,1137.00
2023-04-19T06:08:22.041Z,1130.00
2023-04-19T06:09:22.064Z,1129.00
2023-04-19T06:10:22.044Z,1124.00
2023-04-19T06:11:26.964Z,1121.00
2023-04-19T06:12:22.065Z,1121.00
2023-04-19T06:13:21.059Z,1133.00
2023-04-19T06:14:22.024Z,1136.00
2023-04-19T06:15:22.001Z,1137.00
2023-04-19T06:16:22.045Z,1139.00
2023-04-19T06:17:22.012Z,1150.00
2023-04-19T06:18:21.988Z,1153.00
2023-04-19T06:19:21.997Z,1153.00
2023-04-19T06:20:21.997Z,1153.00
2023-04-19T06:21:21.007Z,1165.00
2023-04-19T06:22:21.306Z,1163.00
2023-04-19T06:23:20.949Z,1159.00
2023-04-19T06:24:20.955Z,1155.00
2023-04-19T06:25:21.937Z,1158.00
2023-04-19T06:26:20.932Z,1157.00
2023-04-19T06:27:21.938Z,1158.00
2023-04-19T06:28:21.916Z,1160.00
2023-04-19T06:29:20.922Z,1165.00
2023-04-19T06:30:21.892Z,1164.00
2023-04-19T06:31:21.943Z,1167.00
2023-04-19T06:32:20.932Z,1174.00
2023-04-19T06:33:21.884Z,1175.00
2023-04-19T06:34:20.896Z,1168.00
2023-04-19T06:35:21.929Z,1165.00
2023-04-19T06:36:21.974Z,1170.00
2023-04-19T06:37:21.066Z,1175.00
2023-04-19T06:38:22.073Z,1180.00
2023-04-19T06:39:22.087Z,1182.00
2023-04-19T06:40:21.118Z,1181.00
2023-04-19T06:41:21.183Z,1186.00
2023-04-19T06:42:21.186Z,1181.00
2023-04-19T06:43:22.218Z,1174.00
2023-04-19T06:44:22.260Z,1174.00
2023-04-19T06:45:22.299Z,1173.00
2023-04-19T06:46:21.406Z,1169.00
2023-04-19T06:47:21.382Z,1174.00
2023-04-19T06:48:22.391Z,1182.00
2023-04-19T06:49:22.432Z,1175.00
2023-04-19T06:50:22.510Z,1213.00
2023-04-19T06:51:22.522Z,1188.00
2023-04-19T06:52:22.675Z,1205.00
2023-04-19T06:53:22.525Z,1243.00
2023-04-19T06:54:22.573Z,1241.00
2023-04-19T06:55:22.630Z,1253.00
2023-04-19T06:56:21.608Z,1252.00
2023-04-19T06:57:22.184Z,1259.00
2023-04-19T06:58:21.726Z,1257.00
2023-04-19T06:59:21.761Z,1258.00
2023-04-19T07:00:22.832Z,1319.00
2023-04-19T07:01:21.886Z,1271.00
2023-04-19T07:02:22.092Z,1266.00
2023-04-19T07:03:22.077Z,1267.00
2023-04-19T07:04:22.389Z,1266.00
2023-04-19T07:05:21.978Z,1268.00
2023-04-19T07:06:23.022Z,1267.00
2023-04-19T07:07:23.056Z,1264.00
2023-04-19T07:08:23.049Z,1261.00
2023-04-19T07:09:23.093Z,1260.00
2023-04-19T07:10:23.132Z,1251.00
2023-04-19T07:11:23.123Z,1255.00
2023-04-19T07:12:22.158Z,1251.00
2023-04-19T07:13:23.327Z,1250.00
2023-04-19T07:14:23.181Z,1253.00
2023-04-19T07:15:22.199Z,1253.00
2023-04-19T07:16:23.289Z,1249.00
2023-04-19T07:17:22.251Z,1246.00
2023-04-19T07:18:22.238Z,1248.00
2023-04-19T07:19:22.236Z,1244.00
2023-04-19T07:20:23.280Z,1245.00
2023-04-19T07:21:23.262Z,1239.00
2023-04-19T07:22:23.315Z,1241.00
2023-04-19T07:23:22.302Z,1244.00
2023-04-19T07:24:22.331Z,1245.00
2023-04-19T07:25:23.582Z,1239.00
2023-04-19T07:26:23.438Z,1300.00
2023-04-19T07:27:22.444Z,1335.00
2023-04-19T07:28:22.454Z,1339.00
2023-04-19T07:29:23.455Z,1300.00
2023-04-19T07:30:23.460Z,1364.00
2023-04-19T07:31:22.460Z,1835.00
2023-04-19T07:32:22.543Z,1726.00
2023-04-19T07:33:25.958Z,1590.00
2023-04-19T07:34:22.493Z,1397.00
2023-04-19T07:35:22.498Z,1311.00
2023-04-19T07:36:22.481Z,1355.00
2023-04-19T07:37:22.707Z,1278.00
2023-04-19T07:38:23.589Z,1277.00
2023-04-19T07:39:23.872Z,1272.00
2023-04-19T07:40:23.694Z,1269.00
2023-04-19T07:41:23.725Z,1264.00
2023-04-19T07:42:22.820Z,1260.00
2023-04-19T07:43:23.813Z,1260.00
2023-04-19T07:44:23.845Z,1257.00
2023-04-19T07:45:22.911Z,1257.00
2023-04-19T07:46:24.052Z,1252.00
2023-04-19T07:47:24.720Z,1294.00
2023-04-19T07:48:22.983Z,1364.00
2023-04-19T07:49:24.017Z,1357.00
2023-04-19T07:50:24.040Z,1351.00
2023-04-19T07:51:23.056Z,1358.00
2023-04-19T07:52:23.206Z,1365.00
2023-04-19T07:53:23.172Z,1463.00
2023-04-19T07:54:24.160Z,1427.00
2023-04-19T07:55:24.774Z,1498.00
2023-04-19T07:56:24.234Z,1522.00
2023-04-19T07:57:24.194Z,1524.00
2023-04-19T07:58:24.237Z,1539.00
2023-04-19T07:59:24.246Z,1551.00
2023-04-19T08:00:24.271Z,1567.00
2023-04-19T08:01:24.298Z,1572.00
2023-04-19T08:02:23.637Z,1583.00
2023-04-19T08:03:24.540Z,1608.00
2023-04-19T08:04:25.113Z,1620.00
2023-04-19T08:05:24.476Z,1634.00
2023-04-19T08:06:23.385Z,1673.00
2023-04-19T08:07:24.412Z,1666.00
2023-04-19T08:08:23.396Z,1706.00
2023-04-19T08:09:23.448Z,1707.00
2023-04-19T08:10:24.435Z,1713.00
2023-04-19T08:11:24.506Z,1756.00
2023-04-19T08:12:35.134Z,1761.00
2023-04-19T08:13:24.496Z,1775.00
2023-04-19T08:14:37.246Z,1794.00
2023-04-19T08:16:05.110Z,1799.00
2023-04-19T08:17:27.980Z,1850.00
2023-04-19T08:18:24.590Z,1862.00
2023-04-19T08:19:24.452Z,1874.00
2023-04-19T08:20:24.505Z,1889.00
2023-04-19T08:21:31.285Z,1904.00
2023-04-19T08:22:24.455Z,1918.00
2023-04-19T08:23:27.712Z,1934.00
2023-04-19T08:24:24.437Z,1961.00
2023-04-19T08:25:24.427Z,1964.00
2023-04-19T08:26:24.423Z,1998.00
2023-04-19T08:27:24.424Z,2006.00
2023-04-19T08:28:24.450Z,2018.00
2023-04-19T08:29:24.410Z,2050.00
2023-04-19T08:30:24.416Z,2064.00
2023-04-19T08:31:24.507Z,2082.00
2023-04-19T08:32:23.401Z,2098.00
2023-04-19T08:33:24.423Z,2156.00
2023-04-19T08:34:23.361Z,2149.00
2023-04-19T08:35:24.449Z,2143.00
2023-04-19T08:36:35.401Z,2164.00
2023-04-19T08:37:24.547Z,2169.00
2023-04-19T08:38:23.497Z,2179.00
2023-04-19T08:39:32.374Z,2190.00
2023-04-19T08:40:24.635Z,2214.00
2023-04-19T08:41:23.455Z,2236.00
2023-04-19T08:42:35.821Z,2244.00
2023-04-19T08:43:24.722Z,2273.00
2023-04-19T08:44:34.995Z,2047.00
2023-04-19T08:45:27.896Z,1459.00
2023-04-19T08:46:23.443Z,1216.00
2023-04-19T08:47:31.235Z,1162.00
2023-04-19T08:48:24.405Z,1449.00
2023-04-19T08:49:24.378Z,1697.00
2023-04-19T08:50:32.597Z,1239.00
2023-04-19T08:51:24.359Z,997.00
2023-04-19T08:52:24.362Z,788.00
2023-04-19T08:53:25.922Z,904.00
2023-04-19T08:56:10.624Z,846.00
2023-04-19T08:56:58.182Z,846.00
2023-04-19T08:57:57.402Z,1063.00
2023-04-19T08:59:11.489Z,708.00
2023-04-19T08:59:58.193Z,692.00
2023-04-19T09:00:57.147Z,672.00
2023-04-19T09:01:58.979Z,646.00
2023-04-19T09:02:58.340Z,635.00
2023-04-19T09:04:07.404Z,635.00
2023-04-19T09:04:59.002Z,633.00
2023-04-19T09:05:58.444Z,601.00
2023-04-19T09:06:57.100Z,604.00
2023-04-19T09:07:57.113Z,598.00
2023-04-19T09:08:58.113Z,591.00
2023-04-19T09:10:02.871Z,593.00
2023-04-19T09:10:58.090Z,651.00
2023-04-19T09:11:58.097Z,645.00
2023-04-19T09:12:58.087Z,682.00
2023-04-19T09:13:57.199Z,631.00
2023-04-19T09:15:01.632Z,626.00
2023-04-19T09:15:58.270Z,615.00
2023-04-19T09:16:58.261Z,612.00
2023-04-19T09:17:58.697Z,605.00
2023-04-19T09:19:05.436Z,595.00
2023-04-19T09:19:58.333Z,583.00
2023-04-19T09:20:58.314Z,579.00
2023-04-19T09:21:58.298Z,561.00
2023-04-19T09:22:58.301Z,559.00
2023-04-19T09:23:58.294Z,553.00
2023-04-19T09:26:58.313Z,538.00
2023-04-19T09:27:58.263Z,531.00
2023-04-19T09:28:58.267Z,531.00
2023-04-19T09:29:58.272Z,619.00
2023-04-19T09:31:05.786Z,611.00
2023-04-19T09:31:58.334Z,589.00
2023-04-19T09:32:59.334Z,594.00
2023-04-19T09:33:58.282Z,603.00
2023-04-19T09:34:58.320Z,604.00
2023-04-19T09:35:58.226Z,593.00
2023-04-19T09:37:09.047Z,581.00
2023-04-19T09:38:05.434Z,556.00
2023-04-19T09:38:58.247Z,545.00
2023-04-19T09:39:58.217Z,541.00
2023-04-19T09:40:58.215Z,538.00
2023-04-19T09:41:57.214Z,536.00
2023-04-19T09:43:08.747Z,536.00
2023-04-19T09:44:13.047Z,536.00
2023-04-19T09:45:57.172Z,528.00
2023-04-19T09:46:57.186Z,853.00
2023-04-19T09:47:58.189Z,604.00
2023-04-19T09:48:58.718Z,581.00
2023-04-19T09:49:58.544Z,657.00
2023-04-19T09:51:02.427Z,710.00
2023-04-19T09:51:58.167Z,759.00
2023-04-19T09:52:58.100Z,854.00
2023-04-19T09:53:58.094Z,852.00
2023-04-19T09:54:58.105Z,689.00
2023-04-19T09:56:01.210Z,658.00
2023-04-19T09:57:00.177Z,668.00
2023-04-19T09:57:58.074Z,849.00
2023-04-19T09:59:04.903Z,869.00
2023-04-19T09:59:58.123Z,923.00
2023-04-19T10:01:10.764Z,791.00
2023-04-19T10:01:58.145Z,942.00
2023-04-19T10:02:57.166Z,964.00
2023-04-19T10:05:11.198Z,982.00
2023-04-19T10:05:58.194Z,988.00
2023-04-19T10:07:19.461Z,981.00
2023-04-19T10:07:59.962Z,950.00
2023-04-19T10:08:58.026Z,955.00
2023-04-19T10:10:02.247Z,979.00
2023-04-19T10:10:59.185Z,992.00
2023-04-19T10:12:03.723Z,1003.00
2023-04-19T10:13:15.296Z,1011.00
2023-04-19T10:13:57.963Z,1028.00
2023-04-19T10:14:57.952Z,1037.00
2023-04-19T10:16:01.773Z,1054.00
2023-04-19T10:16:57.978Z,1067.00
2023-04-19T10:17:58.017Z,1078.00
2023-04-19T10:18:57.956Z,1062.00
2023-04-19T10:19:56.960Z,1067.00
2023-04-19T10:20:57.922Z,1074.00
2023-04-19T10:21:58.042Z,1079.00
2023-04-19T10:22:57.911Z,1079.00
2023-04-19T10:23:56.933Z,1077.00
2023-04-19T10:24:57.899Z,1079.00
2023-04-19T10:25:56.915Z,1086.00
2023-04-19T10:26:56.916Z,1080.00
2023-04-19T10:27:56.901Z,1077.00
2023-04-19T10:28:56.931Z,1080.00
2023-04-19T10:29:56.867Z,1086.00
2023-04-19T10:30:56.886Z,1085.00
2023-04-19T10:31:57.992Z,1083.00
2023-04-19T10:32:58.010Z,1056.00
2023-04-19T10:33:58.125Z,1066.00
2023-04-19T10:34:57.085Z,1072.00
2023-04-19T10:35:58.147Z,1071.00
2023-04-19T10:36:57.194Z,1054.00
2023-04-19T10:37:58.371Z,1038.00
2023-04-19T10:38:57.294Z,1055.00
2023-04-19T10:39:57.304Z,1061.00
2023-04-19T10:40:58.354Z,1063.00
2023-04-19T10:41:58.416Z,1065.00
2023-04-19T10:42:57.455Z,1061.00
2023-04-19T10:43:57.937Z,1058.00
2023-04-19T10:44:57.559Z,1080.00
2023-04-19T10:45:58.599Z,1123.00
2023-04-19T10:46:57.631Z,1151.00
2023-04-19T10:47:58.738Z,1173.00
2023-04-19T10:48:58.659Z,1233.00
2023-04-19T10:49:58.684Z,1319.00
2023-04-19T10:50:57.688Z,1385.00
2023-04-19T10:51:58.719Z,1381.00
2023-04-19T10:52:57.773Z,1414.00
2023-04-19T10:53:59.036Z,1417.00
2023-04-19T10:54:58.870Z,1434.00
2023-04-19T10:55:57.905Z,1428.00
2023-04-19T10:56:58.959Z,1423.00
2023-04-19T10:57:58.008Z,1391.00
2023-04-19T10:58:58.044Z,1380.00
2023-04-19T10:59:59.088Z,1342.00
2023-04-19T11:00:58.204Z,1330.00
2023-04-19T11:01:59.322Z,1291.00
2023-04-19T11:02:59.393Z,1266.00
2023-04-19T11:03:58.359Z,1251.00
2023-04-19T11:04:59.253Z,1231.00
2023-04-19T11:05:59.353Z,1214.00
2023-04-19T11:06:59.321Z,1211.00
2023-04-19T11:07:59.338Z,1210.00
2023-04-19T11:08:59.401Z,1198.00
2023-04-19T11:09:59.432Z,1200.00
2023-04-19T11:10:58.411Z,1207.00
2023-04-19T11:11:58.433Z,1216.00
2023-04-19T11:12:59.492Z,1222.00
2023-04-19T11:13:58.546Z,1264.00
2023-04-19T11:14:58.566Z,1270.00
2023-04-19T11:15:59.606Z,1255.00
2023-04-19T11:16:59.621Z,1259.00
2023-04-19T11:18:11.957Z,1283.00
2023-04-19T11:18:59.598Z,1272.00
2023-04-19T11:19:58.583Z,1276.00
2023-04-19T11:20:58.589Z,1266.00
2023-04-19T11:21:59.591Z,1263.00
2023-04-19T11:22:59.725Z,1275.00
2023-04-19T11:23:59.564Z,1275.00
2023-04-19T11:24:59.544Z,1296.00
2023-04-19T11:26:00.490Z,1295.00
2023-04-19T11:26:59.550Z,1305.00
2023-04-19T11:27:59.533Z,1316.00
2023-04-19T11:28:59.539Z,1325.00
2023-04-19T11:29:59.538Z,1358.00
2023-04-19T11:30:58.557Z,1369.00
2023-04-19T11:31:59.505Z,1413.00
2023-04-19T11:32:58.585Z,1417.00
2023-04-19T11:33:59.505Z,1428.00
2023-04-19T11:34:59.510Z,1482.00
2023-04-19T11:35:58.496Z,1467.00
2023-04-19T11:36:59.504Z,1511.00
2023-04-19T11:37:58.485Z,1513.00
2023-04-19T11:38:59.465Z,1507.00
2023-04-19T11:39:58.530Z,1510.00
2023-04-19T11:40:59.554Z,1514.00
2023-04-19T11:41:59.593Z,1517.00
2023-04-19T11:42:58.633Z,1519.00
2023-04-19T11:43:59.665Z,1522.00
2023-04-19T11:44:59.725Z,1524.00
2023-04-19T11:45:58.774Z,1522.00
2023-04-19T11:46:59.048Z,1518.00
2023-04-19T11:47:59.910Z,1515.00
2023-04-19T11:48:58.996Z,1513.00
2023-04-19T11:49:59.002Z,1513.00
2023-04-19T11:51:00.042Z,1513.00
2023-04-19T11:52:00.104Z,1519.00
2023-04-19T11:53:00.165Z,1517.00
2023-04-19T11:54:00.205Z,1512.00
2023-04-19T11:54:59.156Z,1512.00
2023-04-19T11:55:59.187Z,1513.00
2023-04-19T11:56:59.224Z,1505.00
2023-04-19T11:58:00.275Z,1507.00
2023-04-19T11:58:59.267Z,1505.00
2023-04-19T12:00:00.264Z,1504.00
2023-04-19T12:01:00.276Z,1502.00
2023-04-19T12:01:59.319Z,1503.00
2023-04-19T12:02:59.427Z,1502.00
2023-04-19T12:03:59.484Z,1506.00
2023-04-19T12:04:59.555Z,1503.00
2023-04-19T12:05:59.655Z,1488.00
2023-04-19T12:06:59.420Z,1483.00
2023-04-19T12:08:00.439Z,1485.00
2023-04-19T12:09:00.461Z,1479.00
2023-04-19T12:10:00.464Z,1476.00
2023-04-19T12:10:59.475Z,1476.00
2023-04-19T12:12:00.561Z,1472.00
2023-04-19T12:13:00.557Z,1468.00
2023-04-19T12:13:59.652Z,1461.00
2023-04-19T12:15:00.616Z,1448.00
2023-04-19T12:16:00.600Z,1437.00
2023-04-19T12:16:59.714Z,1433.00
2023-04-19T12:18:00.649Z,1431.00
2023-04-19T12:19:00.641Z,1424.00
2023-04-19T12:20:00.650Z,1425.00
2023-04-19T12:21:01.350Z,1424.00
2023-04-19T12:22:00.740Z,1421.00
2023-04-19T12:23:00.775Z,1416.00
2023-04-19T12:23:59.860Z,1414.00
2023-04-19T12:25:00.881Z,1415.00
2023-04-19T12:25:59.923Z,1415.00
2023-04-19T12:27:00.990Z,1413.00
2023-04-19T12:28:00.005Z,1410.00
2023-04-19T12:29:00.044Z,1410.00
2023-04-19T12:30:01.219Z,1410.00
2023-04-19T12:31:00.130Z,1409.00
2023-04-19T12:32:01.172Z,1413.00
2023-04-19T12:33:01.206Z,1416.00
2023-04-19T12:34:00.278Z,1417.00
2023-04-19T12:35:01.305Z,1416.00
2023-04-19T12:36:00.334Z,1414.00
2023-04-19T12:37:00.382Z,1410.00
2023-04-19T12:38:01.415Z,1410.00
2023-04-19T12:39:01.492Z,1410.00
2023-04-19T12:40:00.522Z,1408.00
2023-04-19T12:41:01.544Z,1412.00
2023-04-19T12:42:01.574Z,1416.00
2023-04-19T12:43:01.582Z,1415.00
2023-04-19T12:44:00.655Z,1411.00
2023-04-19T12:45:00.625Z,1410.00
2023-04-19T12:46:00.771Z,1409.00
2023-04-19T12:47:01.683Z,1408.00
2023-04-19T12:48:01.715Z,1413.00
2023-04-19T12:49:00.760Z,1413.00
2023-04-19T12:50:01.766Z,1413.00
2023-04-19T12:51:01.810Z,1413.00
2023-04-19T12:52:00.766Z,1413.00
2023-04-19T12:53:00.758Z,1413.00
2023-04-19T12:54:01.825Z,1415.00
2023-04-19T12:55:01.784Z,1415.00
2023-04-19T12:56:01.826Z,1387.00
2023-04-19T12:57:02.907Z,1408.00
2023-04-19T12:58:01.998Z,1408.00
2023-04-19T12:59:01.002Z,1406.00
2023-04-19T13:00:01.020Z,1405.00
2023-04-19T13:01:01.109Z,1407.00
2023-04-19T13:02:02.334Z,1401.00
2023-04-19T13:03:02.223Z,1404.00
2023-04-19T13:04:01.480Z,1404.00
2023-04-19T13:05:01.200Z,1404.00
2023-04-19T13:06:02.141Z,1404.00
2023-04-19T13:07:02.183Z,1406.00
2023-04-19T13:08:02.196Z,1405.00
2023-04-19T13:09:01.716Z,1404.00
2023-04-19T13:10:01.233Z,1395.00
2023-04-19T13:11:02.232Z,1394.00
2023-04-19T13:12:02.268Z,1388.00
2023-04-19T13:13:02.273Z,1388.00
2023-04-19T13:14:02.321Z,1388.00
2023-04-19T13:15:03.660Z,1383.00
2023-04-19T13:16:02.360Z,1383.00
2023-04-19T13:17:01.335Z,1383.00
2023-04-19T13:18:01.384Z,1382.00
2023-04-19T13:19:02.291Z,1380.00
2023-04-19T13:20:02.303Z,1380.00
2023-04-19T13:21:02.279Z,1381.00
2023-04-19T13:22:02.285Z,1374.00
2023-04-19T13:23:02.290Z,1373.00
2023-04-19T13:24:02.264Z,1370.00
2023-04-19T13:25:02.270Z,1371.00
2023-04-19T13:26:02.303Z,1368.00
2023-04-19T13:27:02.356Z,1368.00
2023-04-19T13:28:01.262Z,1364.00
2023-04-19T13:29:01.234Z,1363.00
2023-04-19T13:30:02.246Z,1365.00
2023-04-19T13:31:02.328Z,1364.00
2023-04-19T13:32:02.219Z,1361.00
2023-04-19T13:33:01.306Z,1358.00
2023-04-19T13:34:02.236Z,1362.00
2023-04-19T13:35:02.241Z,1371.00
2023-04-19T13:36:02.205Z,1368.00
2023-04-19T13:37:02.196Z,1358.00
2023-04-19T13:38:02.199Z,1354.00
2023-04-19T13:39:02.248Z,1352.00
2023-04-19T13:40:17.478Z,1342.00
2023-04-19T13:41:02.175Z,1340.00
2023-04-19T13:42:01.154Z,1336.00
2023-04-19T13:43:02.188Z,1336.00
2023-04-19T13:44:01.150Z,1332.00
2023-04-19T13:45:02.173Z,1327.00
2023-04-19T13:46:02.149Z,1322.00
2023-04-19T13:47:02.178Z,1321.00
2023-04-19T13:48:02.238Z,1323.00
2023-04-19T13:49:02.111Z,1322.00
2023-04-19T13:50:02.197Z,1316.00
2023-04-19T13:51:02.104Z,1309.00
2023-04-19T13:52:02.132Z,1304.00
2023-04-19T13:53:02.100Z,1305.00
2023-04-19T13:54:01.082Z,1302.00
2023-04-19T13:55:02.101Z,1300.00
2023-04-19T13:56:02.121Z,1302.00
2023-04-19T13:57:02.069Z,1297.00
2023-04-19T13:58:02.118Z,1291.00
2023-04-19T13:59:01.063Z,1283.00
2023-04-19T14:00:01.063Z,1278.00
2023-04-19T14:01:02.125Z,1280.00
2023-04-19T14:02:01.087Z,1281.00
2023-04-19T14:03:02.271Z,1277.00
2023-04-19T14:04:02.494Z,1275.00
2023-04-19T14:05:02.049Z,1277.00
2023-04-19T14:06:02.029Z,1272.00
2023-04-19T14:07:01.995Z,1268.00
2023-04-19T14:08:02.131Z,1265.00
2023-04-19T14:09:00.995Z,1266.00
2023-04-19T14:10:02.031Z,1267.00
2023-04-19T14:11:01.974Z,1268.00
2023-04-19T14:12:01.966Z,1269.00
2023-04-19T14:13:00.955Z,1273.00
2023-04-19T14:14:01.957Z,1269.00
2023-04-19T14:15:01.962Z,1271.00
2023-04-19T14:16:00.958Z,1264.00
2023-04-19T14:17:02.002Z,1271.00
2023-04-19T14:18:01.998Z,1267.00
2023-04-19T14:19:01.924Z,1260.00
2023-04-19T14:20:00.926Z,1260.00
2023-04-19T14:21:00.906Z,1254.00
2023-04-19T14:22:01.933Z,1256.00
2023-04-19T14:23:01.922Z,1255.00
2023-04-19T14:24:00.911Z,1254.00
2023-04-19T14:25:00.947Z,1256.00
2023-04-19T14:26:02.032Z,1258.00
2023-04-19T14:28:00.955Z,1246.00
2023-04-19T14:29:01.965Z,1249.00
2023-04-19T14:30:01.940Z,1245.00
2023-04-19T14:31:02.008Z,1252.00
2023-04-19T14:32:13.499Z,1252.00
2023-04-19T14:33:02.005Z,1249.00
2023-04-19T14:34:01.950Z,1249.00
2023-04-19T14:35:00.930Z,1250.00
2023-04-19T14:36:01.919Z,1246.00
2023-04-19T14:37:01.902Z,1246.00
2023-04-19T14:38:01.960Z,1245.00
2023-04-19T14:39:01.886Z,1238.00
2023-04-19T14:40:01.901Z,1243.00
2023-04-19T14:41:01.903Z,1250.00
2023-04-19T14:42:01.868Z,1252.00
2023-04-19T14:43:01.912Z,1249.00
2023-04-19T14:44:00.862Z,1251.00
2023-04-19T14:45:00.858Z,1245.00
2023-04-19T14:46:00.938Z,1253.00
2023-04-19T14:47:01.827Z,1252.00
2023-04-19T14:48:00.926Z,1251.00
2023-04-19T14:49:00.820Z,1250.00
2023-04-19T14:50:00.830Z,1250.00
2023-04-19T14:51:00.792Z,1246.00
2023-04-19T14:52:00.789Z,1245.00
2023-04-19T14:53:00.797Z,1250.00
2023-04-19T14:54:00.798Z,1249.00
2023-04-19T14:55:01.773Z,1246.00
2023-04-19T14:56:01.761Z,1243.00
2023-04-19T14:57:00.801Z,1237.00
2023-04-19T14:58:01.766Z,1241.00
2023-04-19T14:59:00.749Z,1237.00
2023-04-19T15:00:01.855Z,1237.00
2023-04-19T15:01:01.779Z,1232.00
2023-04-19T15:02:00.766Z,1231.00
2023-04-19T15:03:00.817Z,1234.00
2023-04-19T15:04:02.035Z,1233.00
2023-04-19T15:05:02.117Z,1234.00
2023-04-19T15:06:00.699Z,1228.00
2023-04-19T15:07:01.703Z,1225.00
2023-04-19T15:08:01.709Z,1226.00
2023-04-19T15:09:00.703Z,1227.00
2023-04-19T15:10:00.747Z,1223.00
2023-04-19T15:11:01.673Z,1224.00
2023-04-19T15:12:00.687Z,1223.00
2023-04-19T15:13:00.665Z,1226.00
2023-04-19T15:14:00.661Z,1225.00
2023-04-19T15:15:00.654Z,1224.00
2023-04-19T15:16:03.093Z,1220.00
2023-04-19T15:17:01.658Z,1218.00
2023-04-19T15:18:01.675Z,1217.00
2023-04-19T15:19:01.626Z,1217.00
2023-04-19T15:20:00.738Z,1218.00
2023-04-19T15:21:01.613Z,1219.00
2023-04-19T15:22:00.611Z,1217.00
2023-04-19T15:23:01.622Z,1216.00
2023-04-19T15:24:00.596Z,1217.00
2023-04-19T15:25:01.610Z,1213.00
2023-04-19T15:26:01.661Z,1215.00
2023-04-19T15:27:00.593Z,1215.00
2023-04-19T15:28:00.595Z,1214.00
2023-04-19T15:29:01.579Z,1211.00
2023-04-19T15:30:01.632Z,1208.00
